createdAt,value
2023-04-13T08:39:14.799Z,0.80
2023-04-13T08:41:44.811Z,0.95
2023-04-13T08:44:16.446Z,1.00
2023-04-13T08:46:47.178Z,0.75
2023-04-13T08:49:21.848Z,0.93
2023-04-13T08:52:14.519Z,0.82
2023-04-13T08:54:47.772Z,0.93
2023-04-13T09:47:28.901Z,1.42
2023-04-13T09:49:58.280Z,1.20
2023-04-13T09:52:28.509Z,1.23
2023-04-13T09:54:58.400Z,1.38
2023-04-13T09:57:27.325Z,1.30
2023-04-13T09:59:56.360Z,1.48
2023-04-13T10:02:25.169Z,1.42
2023-04-13T10:04:55.606Z,1.48
2023-04-13T10:07:26.105Z,1.00
2023-04-13T10:09:55.424Z,1.40
2023-04-13T10:12:25.687Z,1.48
2023-04-13T10:14:56.046Z,1.30
2023-04-13T10:17:26.368Z,1.33
2023-04-13T10:19:56.645Z,1.67
2023-04-13T10:22:26.530Z,2.03
2023-04-13T10:24:56.512Z,1.90
2023-04-13T10:27:26.349Z,1.60
2023-04-13T10:29:56.178Z,1.77
2023-04-13T10:32:25.589Z,1.42
2023-04-13T10:34:56.148Z,1.48
2023-04-13T10:37:26.105Z,1.40
2023-04-13T10:39:55.463Z,1.50
2023-04-13T11:30:03.368Z,1.60
2023-04-13T11:32:32.750Z,1.90
2023-04-13T11:35:03.002Z,1.90
2023-04-13T11:37:33.301Z,1.60
2023-04-13T11:40:03.341Z,1.77
2023-04-13T11:42:35.964Z,1.60
2023-04-13T11:45:06.375Z,1.55
2023-04-13T11:47:36.757Z,1.88
2023-04-13T11:50:06.762Z,1.73
2023-04-13T11:52:36.140Z,1.70
2023-04-13T11:55:19.042Z,1.90
2023-04-13T11:57:50.408Z,1.88
2023-04-13T12:00:23.244Z,1.75
2023-04-13T12:03:01.702Z,1.60
2023-04-13T12:05:32.828Z,1.90
2023-04-13T12:08:03.001Z,1.95
2023-04-13T12:10:40.114Z,1.40
2023-04-13T12:16:08.496Z,1.33
2023-04-13T12:18:43.663Z,1.58
2023-04-13T12:23:43.633Z,1.63
2023-04-13T12:26:49.853Z,1.63
2023-04-13T12:29:01.742Z,1.67
2023-04-13T12:31:31.721Z,1.52
2023-04-13T12:34:01.205Z,1.58
2023-04-13T12:36:31.468Z,1.30
2023-04-13T12:39:00.587Z,1.55
2023-04-13T12:41:31.010Z,1.58
2023-04-13T12:44:01.477Z,1.33
2023-04-13T12:46:31.140Z,1.58
2023-04-13T12:49:00.959Z,1.45
2023-04-13T12:51:31.537Z,1.55
2023-04-13T12:54:01.525Z,1.67
2023-04-13T12:56:32.392Z,1.48
2023-04-13T12:59:03.111Z,1.40
2023-04-13T13:01:33.182Z,2.25
2023-04-13T13:04:01.501Z,1.63
2023-04-13T13:06:30.929Z,1.70
2023-04-13T13:09:00.929Z,1.58
2023-04-13T13:11:29.979Z,1.55
2023-04-13T13:13:58.966Z,1.50
2023-04-13T13:16:27.696Z,1.30
2023-04-13T13:18:58.182Z,1.50
2023-04-13T13:21:28.517Z,1.73
2023-04-13T13:23:57.930Z,1.70
2023-04-13T13:26:35.399Z,1.35
2023-04-13T13:29:14.679Z,1.38
2023-04-13T13:31:44.068Z,1.70
2023-04-13T13:34:14.414Z,1.40
2023-04-13T13:36:44.575Z,1.60
2023-04-13T13:39:12.995Z,1.55
2023-04-13T13:41:41.812Z,1.40
2023-04-13T13:44:10.940Z,1.83
2023-04-13T13:46:39.869Z,1.35
2023-04-13T13:49:10.336Z,1.65
2023-04-13T13:51:58.074Z,1.70
2023-04-13T13:54:31.890Z,1.63
2023-04-13T13:57:02.367Z,2.17
2023-04-13T13:59:31.911Z,1.67
2023-04-13T14:02:02.349Z,1.40
2023-04-13T14:04:32.869Z,1.13
2023-04-13T14:07:03.318Z,1.92
2023-04-13T14:09:33.212Z,1.33
2023-04-13T14:12:02.970Z,1.33
2023-04-13T14:14:32.560Z,1.70
2023-04-13T14:17:02.023Z,1.40
2023-04-13T14:19:32.408Z,1.50
2023-04-13T14:22:02.400Z,1.40
2023-04-13T14:24:31.180Z,1.65
2023-04-13T14:27:00.707Z,1.70
2023-04-13T14:29:30.696Z,1.73
2023-04-13T14:32:01.040Z,1.50
2023-04-13T14:34:31.384Z,1.10
2023-04-13T14:37:01.002Z,1.60
2023-04-13T14:39:29.724Z,1.58
2023-04-13T14:42:00.103Z,1.33
2023-04-13T14:44:30.444Z,1.55
2023-04-13T14:47:00.323Z,1.75
2023-04-13T14:49:29.259Z,1.85
2023-04-13T14:52:00.020Z,1.60
2023-04-13T14:54:30.433Z,1.55
2023-04-13T14:57:00.777Z,1.25
2023-04-13T14:59:31.087Z,1.60
2023-04-13T15:02:01.288Z,1.70
2023-04-13T15:04:30.173Z,1.67
2023-04-13T15:07:00.355Z,1.52
2023-04-13T15:09:28.868Z,1.70
2023-04-13T15:11:58.240Z,1.75
2023-04-13T15:14:28.646Z,1.65
2023-04-13T15:16:59.207Z,1.40
2023-04-13T15:19:29.737Z,1.20
2023-04-13T15:22:00.575Z,1.40
2023-04-13T15:24:30.155Z,1.45
2023-04-13T15:27:01.067Z,1.40
2023-04-13T15:29:31.483Z,1.30
2023-04-13T15:32:02.126Z,1.45
2023-04-13T15:34:31.665Z,1.80
2023-04-13T15:37:02.031Z,1.67
2023-04-13T15:39:32.328Z,1.90
2023-04-13T15:42:02.192Z,2.22
2023-04-13T15:44:31.133Z,1.80
2023-04-13T15:47:02.417Z,1.88
2023-04-13T15:49:32.425Z,1.70
2023-04-13T15:52:02.722Z,1.90
2023-04-13T15:54:32.580Z,1.42
2023-04-13T15:57:01.612Z,1.65
2023-04-13T15:59:31.105Z,1.80
2023-04-13T16:02:00.904Z,1.60
2023-04-13T16:04:29.211Z,1.60
2023-04-13T16:07:11.886Z,1.55
2023-04-13T16:09:42.158Z,2.08
2023-04-13T16:12:12.549Z,1.65
2023-04-13T16:14:42.942Z,1.85
2023-04-13T16:17:13.230Z,1.45
2023-04-13T16:19:42.447Z,1.48
2023-04-13T16:22:11.133Z,1.52
2023-04-13T16:24:41.414Z,1.95
2023-04-13T16:27:11.904Z,1.73
2023-04-13T16:29:42.211Z,1.55
2023-04-13T16:32:11.628Z,1.45
2023-04-13T16:34:40.663Z,1.60
2023-04-13T16:37:09.414Z,1.55
2023-04-13T16:39:39.726Z,1.50
2023-04-13T16:42:10.041Z,1.38
2023-04-13T16:44:39.984Z,1.30
2023-04-13T16:47:14.296Z,1.50
2023-04-13T16:49:43.268Z,1.30
2023-04-13T16:52:12.736Z,1.65
2023-04-13T16:54:45.913Z,1.08
2023-04-13T16:57:14.711Z,1.30
2023-04-13T16:59:44.197Z,1.50
2023-04-13T17:02:30.168Z,1.15
2023-04-13T17:05:00.326Z,1.60
2023-04-13T17:07:30.634Z,1.45
2023-04-13T17:10:00.965Z,1.25
2023-04-13T17:12:30.884Z,1.23
2023-04-13T17:15:01.222Z,1.65
2023-04-13T17:17:31.513Z,1.52
2023-04-13T17:20:01.931Z,1.33
2023-04-13T17:22:32.284Z,1.75
2023-04-13T17:25:02.282Z,1.42
2023-04-13T17:27:31.023Z,1.48
2023-04-13T17:30:01.832Z,1.55
2023-04-13T17:32:31.654Z,1.20
2023-04-13T17:35:00.968Z,1.30
2023-04-13T17:37:31.303Z,1.30
2023-04-13T17:40:01.690Z,1.30
2023-04-13T17:42:32.000Z,1.02
2023-04-13T17:45:02.230Z,1.58
2023-04-13T17:47:32.637Z,1.23
2023-04-13T17:50:02.915Z,1.20
2023-04-13T17:52:32.930Z,1.17
2023-04-13T17:55:01.391Z,1.27
2023-04-13T17:57:29.651Z,1.25
2023-04-13T17:59:59.094Z,1.10
2023-04-13T18:02:29.148Z,1.30
2023-04-13T18:04:58.554Z,1.13
2023-04-13T18:07:28.851Z,1.10
2023-04-13T18:09:59.142Z,1.20
2023-04-13T18:12:29.423Z,1.20
2023-04-13T18:14:59.725Z,1.20
2023-04-13T18:17:30.105Z,1.02
2023-04-13T18:20:00.498Z,1.25
2023-04-13T18:22:30.765Z,1.08
2023-04-13T18:24:59.516Z,0.90
2023-04-13T18:27:29.752Z,1.45
2023-04-13T18:30:00.117Z,1.10
2023-04-13T18:32:29.538Z,1.10
2023-04-13T18:34:59.862Z,1.02
2023-04-13T18:37:30.378Z,1.20
2023-04-13T18:40:00.761Z,0.98
2023-04-13T18:42:30.348Z,0.95
2023-04-13T18:44:59.011Z,1.02
2023-04-13T18:47:29.318Z,1.10
2023-04-13T18:49:59.739Z,1.05
2023-04-13T18:52:30.065Z,1.50
2023-04-13T18:55:00.295Z,1.20
2023-04-13T18:57:30.294Z,1.42
2023-04-13T18:59:59.089Z,1.20
2023-04-13T19:02:29.237Z,1.10
2023-04-13T19:04:58.200Z,1.20
2023-04-13T19:07:26.167Z,1.20
2023-04-13T19:09:56.913Z,1.35
2023-04-13T19:12:29.058Z,1.13
2023-04-13T19:14:59.353Z,1.08
2023-04-13T19:17:29.443Z,1.25
2023-04-13T19:20:02.246Z,1.25
2023-04-13T19:22:32.519Z,1.30
2023-04-13T19:25:02.935Z,1.23
2023-04-13T19:27:32.809Z,1.33
2023-04-13T19:30:02.124Z,0.82
2023-04-13T19:32:32.442Z,1.13
2023-04-13T19:35:02.809Z,1.20
2023-04-13T19:37:33.196Z,1.10
2023-04-13T19:40:03.519Z,1.35
2023-04-13T19:42:33.825Z,1.00
2023-04-13T19:45:04.125Z,1.42
2023-04-13T19:47:33.984Z,1.23
2023-04-13T19:50:03.149Z,1.40
2023-04-13T19:52:31.332Z,1.70
2023-04-13T19:55:00.676Z,1.25
2023-04-13T19:57:30.705Z,1.00
2023-04-13T19:59:59.406Z,1.42
2023-04-13T20:02:29.773Z,1.55
2023-04-13T20:05:00.205Z,1.33
2023-04-13T20:07:30.092Z,1.50
2023-04-13T20:10:00.460Z,1.30
2023-04-13T20:12:30.826Z,1.00
2023-04-13T20:15:01.187Z,1.10
2023-04-13T20:17:31.571Z,1.27
2023-04-13T20:20:01.500Z,1.23
2023-04-13T20:22:30.681Z,1.20
2023-04-13T20:24:59.090Z,1.30
2023-04-13T20:27:27.857Z,0.90
2023-04-13T20:29:57.740Z,1.20
2023-04-13T20:32:28.123Z,1.20
2023-04-13T20:34:58.907Z,1.30
2023-04-13T20:37:29.285Z,1.27
2023-04-13T20:39:59.556Z,1.65
2023-04-13T20:42:29.837Z,1.10
2023-04-13T20:45:00.206Z,1.15
2023-04-13T20:47:30.677Z,1.33
2023-04-13T20:50:01.049Z,1.13
2023-04-13T20:52:31.506Z,1.13
2023-04-13T20:55:01.966Z,1.30
2023-04-13T20:57:32.390Z,1.10
2023-04-13T21:00:02.777Z,1.30
2023-04-13T21:02:32.859Z,1.20
2023-04-13T21:05:02.314Z,1.20
2023-04-13T21:07:32.846Z,1.17
2023-04-13T21:10:03.194Z,1.02
2023-04-13T21:12:33.477Z,1.30
2023-04-13T21:15:03.761Z,1.20
2023-04-13T21:17:34.166Z,1.17
2023-04-13T21:20:04.691Z,1.30
2023-04-13T21:22:34.734Z,1.27
2023-04-13T21:25:03.468Z,1.20
2023-04-13T21:27:33.959Z,1.08
2023-04-13T21:30:03.925Z,1.05
2023-04-13T21:32:32.614Z,1.00
2023-04-13T21:35:02.519Z,1.10
2023-04-13T21:37:31.603Z,0.93
2023-04-13T21:40:00.313Z,1.25
2023-04-13T21:42:29.869Z,1.10
2023-04-13T21:44:58.463Z,1.10
2023-04-13T21:47:28.262Z,0.90
2023-04-13T21:49:57.584Z,1.17
2023-04-13T21:52:27.111Z,1.00
2023-04-13T21:54:55.831Z,1.10
2023-04-13T21:57:26.117Z,0.98
2023-04-13T21:59:56.364Z,0.90
2023-04-13T22:02:26.373Z,1.20
2023-04-13T22:04:55.756Z,1.05
2023-04-13T22:07:35.424Z,1.38
2023-04-13T22:10:09.884Z,1.05
2023-04-13T22:12:42.240Z,0.93
2023-04-13T22:15:12.329Z,1.00
2023-04-13T22:17:40.621Z,1.13
2023-04-13T22:20:10.980Z,1.00
2023-04-13T22:22:41.397Z,1.00
2023-04-13T22:25:11.567Z,0.90
2023-04-13T22:27:40.528Z,1.08
2023-04-13T22:30:13.451Z,1.00
2023-04-13T22:32:43.703Z,1.10
2023-04-13T22:35:13.995Z,0.93
2023-04-13T22:37:41.984Z,1.25
2023-04-13T22:40:12.300Z,1.60
2023-04-13T22:42:42.160Z,1.00
2023-04-13T22:45:12.058Z,1.10
2023-04-13T22:47:41.491Z,1.10
2023-04-13T22:50:11.948Z,1.30
2023-04-13T22:52:41.896Z,1.00
2023-04-13T22:55:11.338Z,1.08
2023-04-13T22:57:41.261Z,1.10
2023-04-13T23:00:11.578Z,0.93
2023-04-13T23:02:41.850Z,1.00
2023-04-13T23:05:10.683Z,0.82
2023-04-13T23:07:40.616Z,0.80
2023-04-13T23:10:10.033Z,0.90
2023-04-13T23:12:39.982Z,0.88
2023-04-13T23:15:10.309Z,0.90
2023-04-13T23:17:40.755Z,1.45
2023-04-13T23:20:14.119Z,0.80
2023-04-13T23:22:42.583Z,1.00
2023-04-13T23:25:13.104Z,0.88
2023-04-13T23:27:43.218Z,1.08
2023-04-13T23:30:11.934Z,1.10
2023-04-13T23:32:42.267Z,0.90
2023-04-13T23:35:12.650Z,1.00
2023-04-13T23:37:42.955Z,0.90
2023-04-13T23:40:13.246Z,0.73
2023-04-13T23:42:42.599Z,0.82
2023-04-13T23:45:11.958Z,0.93
2023-04-13T23:47:42.380Z,0.98
2023-04-13T23:50:12.649Z,0.98
2023-04-13T23:52:42.473Z,1.17
2023-04-13T23:55:11.782Z,0.85
2023-04-13T23:57:41.266Z,1.08
